createdAt,value
2019-06-27T00:00:58.132Z,99.99
2019-06-27T00:01:58.099Z,99.99
2019-06-27T00:02:58.195Z,99.99
2019-06-27T00:03:58.119Z,99.99
2019-06-27T00:04:58.119Z,99.99
2019-06-27T00:05:58.149Z,99.99
2019-06-27T00:06:58.122Z,99.99
2019-06-27T00:07:58.133Z,99.99
2019-06-27T00:08:58.141Z,99.99
2019-06-27T00:09:58.144Z,99.99
2019-06-27T00:10:58.171Z,99.99
2019-06-27T00:11:58.150Z,99.99
2019-06-27T00:12:58.154Z,99.99
2019-06-27T00:13:58.743Z,99.99
2019-06-27T00:14:58.169Z,99.99
2019-06-27T00:15:58.201Z,99.99
2019-06-27T00:16:58.167Z,99.99
2019-06-27T00:17:58.175Z,99.99
2019-06-27T00:18:58.181Z,99.99
2019-06-27T00:19:58.186Z,99.99
2019-06-27T00:20:58.215Z,99.99
2019-06-27T00:21:58.198Z,99.99
2019-06-27T00:22:58.195Z,99.99
2019-06-27T00:23:58.201Z,99.99
2019-06-27T00:24:58.208Z,99.99
2019-06-27T00:25:58.245Z,99.99
2019-06-27T00:26:58.211Z,99.99
2019-06-27T00:27:58.233Z,99.99
2019-06-27T00:28:58.244Z,99.99
2019-06-27T00:29:58.235Z,99.99
2019-06-27T00:30:58.264Z,99.99
2019-06-27T00:31:58.238Z,99.99
2019-06-27T00:32:58.267Z,99.99
2019-06-27T00:33:58.260Z,99.99
2019-06-27T00:34:58.253Z,99.99
2019-06-27T00:35:58.328Z,99.99
2019-06-27T00:36:58.256Z,99.99
2019-06-27T00:37:58.259Z,99.99
2019-06-27T00:38:58.302Z,99.99
2019-06-27T00:39:58.264Z,99.99
2019-06-27T00:40:58.296Z,99.99
2019-06-27T00:41:58.275Z,99.99
2019-06-27T00:42:58.281Z,99.99
2019-06-27T00:43:58.305Z,99.99
2019-06-27T00:44:58.294Z,99.99
2019-06-27T00:45:58.329Z,99.99
2019-06-27T00:46:58.306Z,99.99
2019-06-27T00:47:58.307Z,99.99
2019-06-27T00:48:58.316Z,99.99
2019-06-27T00:49:58.342Z,99.99
2019-06-27T00:50:58.316Z,99.99
2019-06-27T00:51:58.319Z,99.99
2019-06-27T00:52:58.325Z,99.99
2019-06-27T00:53:58.331Z,99.99
2019-06-27T00:54:58.364Z,99.99
2019-06-27T00:55:58.338Z,99.99
2019-06-27T00:57:13.047Z,99.99
2019-06-27T00:57:58.345Z,99.99
2019-06-27T00:58:58.371Z,99.99
2019-06-27T00:59:58.355Z,99.99
2019-06-27T01:00:58.380Z,99.99
2019-06-27T01:01:58.360Z,99.99
2019-06-27T01:02:58.372Z,99.99
2019-06-27T01:03:58.367Z,99.99
2019-06-27T01:04:58.437Z,99.99
2019-06-27T01:05:58.385Z,99.99
2019-06-27T01:06:58.398Z,99.99
2019-06-27T01:07:58.384Z,99.99
2019-06-27T01:08:58.382Z,99.99
2019-06-27T01:10:01.117Z,99.99
2019-06-27T01:10:58.393Z,99.99
2019-06-27T01:11:58.399Z,99.99
2019-06-27T01:12:58.407Z,99.99
2019-06-27T01:13:58.410Z,99.99
2019-06-27T01:14:58.441Z,99.99
2019-06-27T01:15:58.416Z,99.99
2019-06-27T01:16:58.420Z,99.99
2019-06-27T01:17:58.415Z,99.99
2019-06-27T01:18:58.453Z,99.99
2019-06-27T01:19:58.428Z,99.99
2019-06-27T01:20:58.459Z,99.99
2019-06-27T01:21:58.480Z,99.99
2019-06-27T01:22:58.446Z,99.99
2019-06-27T01:23:58.453Z,99.99
2019-06-27T01:24:58.446Z,99.99
2019-06-27T01:25:58.493Z,99.99
2019-06-27T01:26:58.450Z,99.99
2019-06-27T01:27:58.463Z,99.99
2019-06-27T01:28:58.468Z,99.99
2019-06-27T01:29:58.469Z,99.99
2019-06-27T01:30:58.506Z,99.99
2019-06-27T01:31:58.481Z,99.99
2019-06-27T01:32:58.478Z,99.99
2019-06-27T01:33:58.478Z,99.99
2019-06-27T01:34:58.485Z,99.99
2019-06-27T01:35:58.522Z,99.99
2019-06-27T01:36:58.490Z,99.99
2019-06-27T01:37:58.495Z,99.99
2019-06-27T01:38:58.506Z,99.99
2019-06-27T01:39:58.501Z,99.99
2019-06-27T01:40:58.535Z,99.99
2019-06-27T01:41:58.519Z,99.99
2019-06-27T01:42:58.520Z,99.99
2019-06-27T01:43:58.521Z,99.99
2019-06-27T01:44:58.522Z,99.99
2019-06-27T01:45:58.553Z,99.99
2019-06-27T01:46:58.529Z,99.99
2019-06-27T01:47:58.544Z,99.99
2019-06-27T01:48:58.537Z,99.99
2019-06-27T01:49:58.539Z,99.99
2019-06-27T01:50:58.572Z,99.99
2019-06-27T01:51:58.543Z,99.99
2019-06-27T01:52:58.548Z,99.99
2019-06-27T01:53:58.565Z,99.99
2019-06-27T01:54:58.561Z,99.99
2019-06-27T01:55:58.591Z,99.99
2019-06-27T01:56:58.571Z,99.99
2019-06-27T01:57:58.579Z,99.99
2019-06-27T01:58:58.572Z,99.99
2019-06-27T01:59:58.577Z,99.99
2019-06-27T02:00:58.615Z,99.99
2019-06-27T02:01:58.585Z,99.99
2019-06-27T02:02:58.592Z,99.99
2019-06-27T02:03:58.595Z,99.99
2019-06-27T02:04:58.656Z,99.99
2019-06-27T02:05:58.606Z,99.99
2019-06-27T02:06:58.640Z,99.99
2019-06-27T02:07:58.603Z,99.99
2019-06-27T02:08:58.611Z,99.99
2019-06-27T02:09:58.624Z,99.99
2019-06-27T02:10:58.650Z,99.99
2019-06-27T02:11:58.635Z,99.99
2019-06-27T02:12:58.627Z,99.99
2019-06-27T02:13:58.630Z,99.99
2019-06-27T02:14:58.640Z,99.99
2019-06-27T02:15:58.676Z,99.99
2019-06-27T02:16:58.642Z,99.99
2019-06-27T02:17:58.642Z,99.99
2019-06-27T02:18:58.661Z,99.99
2019-06-27T02:19:58.666Z,99.99
2019-06-27T02:20:58.684Z,99.99
2019-06-27T02:21:58.662Z,99.99
2019-06-27T02:22:58.681Z,99.99
2019-06-27T02:23:58.675Z,99.99
2019-06-27T02:24:58.669Z,99.99
2019-06-27T02:25:58.702Z,99.99
2019-06-27T02:26:58.673Z,99.99
2019-06-27T02:28:03.813Z,99.99
2019-06-27T02:28:58.688Z,99.99
2019-06-27T02:29:58.690Z,99.99
2019-06-27T02:30:58.724Z,99.99
2019-06-27T02:31:58.700Z,99.99
2019-06-27T02:32:58.711Z,99.99
2019-06-27T02:33:58.706Z,99.99
2019-06-27T02:34:58.733Z,99.99
2019-06-27T02:35:58.709Z,99.99
2019-06-27T02:36:58.744Z,99.99
2019-06-27T02:37:58.723Z,99.99
2019-06-27T02:38:58.727Z,99.99
2019-06-27T02:39:58.735Z,99.99
2019-06-27T02:40:59.157Z,99.99
2019-06-27T02:41:58.746Z,99.99
2019-06-27T02:42:58.740Z,99.99
2019-06-27T02:43:58.744Z,99.99
2019-06-27T02:44:58.777Z,99.99
2019-06-27T02:45:58.753Z,99.99
2019-06-27T02:46:58.785Z,99.99
2019-06-27T02:47:58.760Z,99.99
2019-06-27T02:48:58.789Z,99.99
2019-06-27T02:49:58.777Z,99.99
2019-06-27T02:50:58.786Z,99.99
2019-06-27T02:51:58.809Z,99.99
2019-06-27T02:52:58.798Z,99.99
2019-06-27T02:53:58.785Z,99.99
2019-06-27T02:54:58.795Z,99.99
2019-06-27T02:55:58.789Z,99.99
2019-06-27T02:56:58.829Z,99.99
2019-06-27T02:57:58.804Z,99.99
2019-06-27T02:58:58.802Z,99.99
2019-06-27T02:59:58.832Z,99.99
2019-06-27T03:00:58.805Z,99.99
2019-06-27T03:01:58.815Z,99.99
2019-06-27T03:02:58.875Z,99.99
2019-06-27T03:03:58.822Z,99.99
2019-06-27T03:04:58.828Z,99.99
2019-06-27T03:05:58.833Z,99.99
2019-06-27T03:06:58.831Z,99.99
2019-06-27T03:07:58.869Z,99.99
2019-06-27T03:08:58.863Z,99.99
2019-06-27T03:09:58.840Z,99.99
2019-06-27T03:10:58.847Z,99.99
2019-06-27T03:12:00.456Z,99.99
2019-06-27T03:12:58.886Z,99.99
2019-06-27T03:13:59.781Z,99.99
2019-06-27T03:14:58.860Z,99.99
2019-06-27T03:15:58.857Z,99.99
2019-06-27T03:16:58.874Z,99.99
2019-06-27T03:17:58.898Z,99.99
2019-06-27T03:18:58.872Z,99.99
2019-06-27T03:19:58.878Z,99.99
2019-06-27T03:20:58.878Z,99.99
2019-06-27T03:21:58.888Z,99.99
2019-06-27T03:22:58.918Z,99.99
2019-06-27T03:23:58.885Z,99.99
2019-06-27T03:24:58.891Z,99.99
2019-06-27T03:25:58.896Z,99.99
2019-06-27T03:26:58.897Z,99.99
2019-06-27T03:27:58.937Z,99.99
2019-06-27T03:28:58.908Z,99.99
2019-06-27T03:29:58.938Z,99.99
2019-06-27T03:30:58.914Z,99.99
2019-06-27T03:31:58.917Z,99.99
2019-06-27T03:32:58.930Z,99.99
2019-06-27T03:33:58.968Z,99.99
2019-06-27T03:34:58.924Z,99.99
2019-06-27T03:35:58.937Z,99.99
2019-06-27T03:36:58.935Z,99.99
2019-06-27T03:37:58.961Z,99.99
2019-06-27T03:38:58.937Z,99.99
2019-06-27T03:39:58.971Z,99.99
2019-06-27T03:40:58.946Z,99.99
2019-06-27T03:41:58.949Z,99.99
2019-06-27T03:42:58.954Z,99.99
2019-06-27T03:43:58.982Z,99.99
2019-06-27T03:44:59.789Z,99.99
2019-06-27T03:45:58.996Z,99.99
2019-06-27T03:46:58.963Z,99.99
2019-06-27T03:47:58.991Z,99.99
2019-06-27T03:48:58.969Z,99.99
2019-06-27T03:49:58.971Z,99.99
2019-06-27T03:50:58.985Z,99.99
2019-06-27T03:51:58.978Z,99.99
2019-06-27T03:52:59.019Z,99.99
2019-06-27T03:53:58.989Z,99.99
2019-06-27T03:54:58.992Z,99.99
2019-06-27T03:55:58.999Z,99.99
2019-06-27T03:56:59.002Z,99.99
2019-06-27T03:57:59.032Z,99.99
2019-06-27T03:59:11.617Z,99.99
2019-06-27T03:59:59.040Z,99.99
2019-06-27T04:00:59.015Z,99.99
2019-06-27T04:01:59.022Z,99.99
2019-06-27T04:02:59.021Z,99.99
2019-06-27T04:03:59.063Z,99.99
2019-06-27T04:04:59.049Z,99.99
2019-06-27T04:05:59.034Z,99.99
2019-06-27T04:06:59.042Z,99.99
2019-06-27T04:07:59.092Z,99.99
2019-06-27T04:08:59.043Z,99.99
2019-06-27T04:09:59.055Z,99.99
2019-06-27T04:10:59.066Z,99.99
2019-06-27T04:11:59.055Z,99.99
2019-06-27T04:12:59.091Z,99.99
2019-06-27T04:13:59.058Z,99.99
2019-06-27T04:14:59.806Z,99.99
2019-06-27T04:15:59.073Z,99.99
2019-06-27T04:16:59.079Z,99.99
2019-06-27T04:17:59.108Z,99.99
2019-06-27T04:18:59.086Z,99.99
2019-06-27T04:19:59.098Z,99.99
2019-06-27T04:20:59.102Z,99.99
2019-06-27T04:21:59.097Z,99.99
2019-06-27T04:22:59.146Z,99.99
2019-06-27T04:23:59.103Z,99.26
2019-06-27T04:24:59.109Z,99.89
2019-06-27T04:25:59.143Z,99.99
2019-06-27T04:26:59.127Z,99.99
2019-06-27T04:28:00.231Z,98.10
2019-06-27T04:28:59.157Z,96.94
2019-06-27T04:29:59.143Z,98.44
2019-06-27T04:30:59.141Z,99.55
2019-06-27T04:31:59.150Z,98.15
2019-06-27T04:32:59.152Z,99.79
2019-06-27T04:33:59.186Z,98.54
2019-06-27T04:34:59.204Z,97.38
2019-06-27T04:35:59.185Z,96.65
2019-06-27T04:36:59.171Z,96.36
2019-06-27T04:37:59.178Z,96.56
2019-06-27T04:38:59.218Z,96.56
2019-06-27T04:39:59.191Z,95.59
2019-06-27T04:40:59.192Z,96.51
2019-06-27T04:41:59.195Z,95.59
2019-06-27T04:42:59.207Z,95.68
2019-06-27T04:43:59.257Z,94.33
2019-06-27T04:44:59.217Z,93.51
2019-06-27T04:45:59.223Z,91.72
2019-06-27T04:46:59.230Z,92.64
2019-06-27T04:47:59.237Z,94.24
2019-06-27T04:48:59.277Z,93.61
2019-06-27T04:49:59.244Z,96.46
2019-06-27T04:50:59.253Z,95.20
2019-06-27T04:51:59.258Z,93.51
2019-06-27T04:52:59.268Z,92.05
2019-06-27T04:53:59.307Z,91.18
2019-06-27T04:55:03.108Z,89.73
2019-06-27T04:55:59.280Z,89.25
2019-06-27T04:56:59.293Z,89.34
2019-06-27T04:57:59.293Z,88.47
2019-06-27T04:58:59.333Z,87.99
2019-06-27T04:59:59.320Z,87.54
2019-06-27T05:00:59.334Z,86.58
2019-06-27T05:01:59.318Z,86.58
2019-06-27T05:02:59.328Z,86.04
2019-06-27T05:03:59.366Z,84.30
2019-06-27T05:04:59.334Z,83.23
2019-06-27T05:05:59.343Z,83.40
2019-06-27T05:06:59.353Z,83.80
2019-06-27T05:07:59.377Z,82.82
2019-06-27T05:08:59.388Z,82.30
2019-06-27T05:09:59.366Z,82.69
2019-06-27T05:10:59.375Z,82.53
2019-06-27T05:11:59.382Z,82.50
2019-06-27T05:12:59.390Z,81.48
2019-06-27T05:13:59.420Z,82.84
2019-06-27T05:14:59.402Z,82.17
2019-06-27T05:15:59.408Z,83.42
2019-06-27T05:16:59.415Z,84.00
2019-06-27T05:17:59.436Z,84.69
2019-06-27T05:18:59.467Z,87.02
2019-06-27T05:20:02.889Z,87.85
2019-06-27T05:20:59.440Z,88.81
2019-06-27T05:21:59.448Z,88.77
2019-06-27T05:22:59.455Z,88.73
2019-06-27T05:23:59.524Z,90.71
2019-06-27T05:24:59.471Z,91.77
2019-06-27T05:25:59.483Z,93.51
2019-06-27T05:26:59.477Z,92.69
2019-06-27T05:27:59.490Z,90.94
2019-06-27T05:28:59.517Z,89.53
2019-06-27T05:30:09.538Z,89.39
2019-06-27T05:30:59.513Z,89.69
2019-06-27T05:31:59.522Z,89.83
2019-06-27T05:32:59.525Z,89.00
2019-06-27T05:33:59.555Z,88.37
2019-06-27T05:34:59.535Z,89.05
2019-06-27T05:36:02.346Z,91.05
2019-06-27T05:36:59.552Z,91.86
2019-06-27T05:37:59.557Z,89.35
2019-06-27T05:38:59.587Z,90.42
2019-06-27T05:39:59.570Z,93.18
2019-06-27T05:40:59.574Z,92.36
2019-06-27T05:42:00.374Z,94.68
2019-06-27T05:42:59.594Z,95.64
2019-06-27T05:43:59.620Z,94.72
2019-06-27T05:44:59.607Z,93.37
2019-06-27T05:45:59.604Z,94.04
2019-06-27T05:46:59.618Z,92.07
2019-06-27T05:47:59.623Z,90.90
2019-06-27T05:48:59.656Z,89.15
2019-06-27T05:49:59.640Z,88.28
2019-06-27T05:50:59.638Z,86.73
2019-06-27T05:51:59.646Z,86.73
2019-06-27T05:52:59.654Z,86.09
2019-06-27T05:53:59.701Z,85.61
2019-06-27T05:54:59.669Z,86.65
2019-06-27T05:55:59.678Z,89.11
2019-06-27T05:56:59.684Z,89.01
2019-06-27T05:57:59.685Z,90.41
2019-06-27T05:58:59.721Z,90.85
2019-06-27T05:59:59.719Z,90.03
2019-06-27T06:00:59.707Z,91.86
2019-06-27T06:01:59.710Z,88.71
2019-06-27T06:02:59.730Z,88.23
2019-06-27T06:03:59.764Z,90.86
2019-06-27T06:04:59.729Z,94.34
2019-06-27T06:05:59.801Z,93.32
2019-06-27T06:06:59.752Z,94.53
2019-06-27T06:07:59.756Z,93.80
2019-06-27T06:08:59.757Z,96.08
2019-06-27T06:09:59.799Z,94.82
2019-06-27T06:10:59.771Z,94.57
2019-06-27T06:12:00.369Z,93.85
2019-06-27T06:12:59.783Z,93.61
2019-06-27T06:13:59.821Z,95.83
2019-06-27T06:14:59.795Z,92.74
2019-06-27T06:16:01.166Z,88.85
2019-06-27T06:16:59.809Z,89.05
2019-06-27T06:17:59.818Z,88.17
2019-06-27T06:18:59.860Z,86.86
2019-06-27T06:19:59.833Z,85.19
2019-06-27T06:20:59.870Z,82.38
2019-06-27T06:21:59.843Z,81.35
2019-06-27T06:22:59.858Z,81.85
2019-06-27T06:23:59.862Z,82.07
2019-06-27T06:24:59.900Z,83.72
2019-06-27T06:25:59.913Z,82.65
2019-06-27T06:26:59.887Z,83.13
2019-06-27T06:27:59.887Z,83.47
2019-06-27T06:28:59.897Z,82.50
2019-06-27T06:29:59.905Z,82.15
2019-06-27T06:30:59.950Z,80.63
2019-06-27T06:31:59.912Z,79.28
2019-06-27T06:32:59.931Z,79.28
2019-06-27T06:33:59.930Z,80.54
2019-06-27T06:34:59.942Z,81.72
2019-06-27T06:35:59.981Z,81.62
2019-06-27T06:36:59.963Z,81.08
2019-06-27T06:37:59.962Z,80.94
2019-06-27T06:38:59.968Z,83.00
2019-06-27T06:39:59.985Z,83.86
2019-06-27T06:41:00.014Z,82.45
2019-06-27T06:42:00.011Z,82.65
2019-06-27T06:43:00.698Z,81.85
2019-06-27T06:44:00.010Z,81.72
2019-06-27T06:45:00.054Z,80.46
2019-06-27T06:46:00.053Z,81.68
2019-06-27T06:47:00.033Z,84.35
2019-06-27T06:48:00.043Z,83.75
2019-06-27T06:49:00.046Z,81.66
2019-06-27T06:50:00.087Z,79.82
2019-06-27T06:51:00.069Z,80.69
2019-06-27T06:52:00.150Z,82.45
2019-06-27T06:53:00.084Z,84.03
2019-06-27T06:54:00.101Z,86.30
2019-06-27T06:55:00.167Z,84.64
2019-06-27T06:56:00.117Z,81.82
2019-06-27T06:57:00.128Z,79.76
2019-06-27T06:58:00.127Z,76.60
2019-06-27T06:59:00.152Z,74.50
2019-06-27T07:00:00.170Z,73.75
2019-06-27T07:01:02.215Z,73.56
2019-06-27T07:02:00.183Z,72.92
2019-06-27T07:03:00.162Z,71.75
2019-06-27T07:04:00.178Z,70.87
2019-06-27T07:05:00.383Z,72.72
2019-06-27T07:06:00.198Z,73.02
2019-06-27T07:07:00.201Z,72.11
2019-06-27T07:08:00.245Z,73.33
2019-06-27T07:09:00.224Z,74.75
2019-06-27T07:10:00.252Z,73.14
2019-06-27T07:11:00.280Z,72.59
2019-06-27T07:12:00.264Z,72.75
2019-06-27T07:13:00.256Z,71.91
2019-06-27T07:14:00.262Z,72.04
2019-06-27T07:15:00.304Z,70.78
2019-06-27T07:16:00.282Z,70.04
2019-06-27T07:17:00.288Z,71.46
2019-06-27T07:18:00.291Z,71.66
2019-06-27T07:19:00.300Z,71.36
2019-06-27T07:20:00.349Z,71.20
2019-06-27T07:21:00.319Z,70.23
2019-06-27T07:22:00.331Z,70.97
2019-06-27T07:23:00.349Z,72.01
2019-06-27T07:24:00.349Z,72.75
2019-06-27T07:25:00.396Z,71.97
2019-06-27T07:26:00.378Z,70.10
2019-06-27T07:27:00.427Z,70.20
2019-06-27T07:28:00.405Z,70.62
2019-06-27T07:29:00.399Z,68.57
2019-06-27T07:30:00.405Z,69.13
2019-06-27T07:31:08.252Z,68.29
2019-06-27T07:32:00.452Z,70.23
2019-06-27T07:33:00.435Z,68.80
2019-06-27T07:34:00.445Z,68.02
2019-06-27T07:35:00.456Z,71.26
2019-06-27T07:36:00.494Z,77.28
2019-06-27T07:37:00.500Z,78.19
2019-06-27T07:38:00.481Z,75.36
2019-06-27T07:39:00.502Z,73.68
2019-06-27T07:40:00.512Z,71.62
2019-06-27T07:41:00.537Z,69.32
2019-06-27T07:42:00.552Z,67.54
2019-06-27T07:43:01.353Z,68.99
2019-06-27T07:44:00.550Z,68.93
2019-06-27T07:45:00.551Z,66.34
2019-06-27T07:46:00.625Z,67.47
2019-06-27T07:47:00.568Z,68.89
2019-06-27T07:48:00.592Z,71.58
2019-06-27T07:49:00.594Z,73.67
2019-06-27T07:50:00.608Z,74.16
2019-06-27T07:51:00.645Z,72.83
2019-06-27T07:52:01.362Z,70.48
2019-06-27T07:53:00.654Z,69.38
2019-06-27T07:54:00.728Z,69.13
2019-06-27T07:55:00.668Z,69.09
2019-06-27T07:56:00.697Z,66.34
2019-06-27T07:57:00.677Z,63.39
2019-06-27T07:58:00.687Z,62.73
2019-06-27T07:59:00.703Z,61.01
2019-06-27T08:00:00.720Z,62.28
2019-06-27T08:01:00.758Z,61.08
2019-06-27T08:02:00.731Z,60.88
2019-06-27T08:03:00.744Z,60.13
2019-06-27T08:04:00.753Z,58.50
2019-06-27T08:05:00.762Z,59.84
2019-06-27T08:06:00.862Z,59.28
2019-06-27T08:07:00.799Z,59.23
2019-06-27T08:08:00.826Z,61.34
2019-06-27T08:09:00.833Z,62.81
2019-06-27T08:10:00.829Z,65.63
2019-06-27T08:11:00.913Z,65.53
2019-06-27T08:12:00.843Z,65.72
2019-06-27T08:13:00.881Z,67.47
2019-06-27T08:14:00.873Z,66.66
2019-06-27T08:15:00.883Z,64.59
2019-06-27T08:16:00.925Z,62.29
2019-06-27T08:17:00.916Z,62.22
2019-06-27T08:18:00.920Z,62.38
2019-06-27T08:19:00.930Z,64.36
2019-06-27T08:20:00.947Z,66.17
2019-06-27T08:21:00.992Z,67.37
2019-06-27T08:22:00.974Z,65.53
2019-06-27T08:23:00.981Z,62.19
2019-06-27T08:24:00.993Z,60.14
2019-06-27T08:25:01.005Z,62.81
2019-06-27T08:26:01.048Z,67.44
2019-06-27T08:27:01.060Z,68.93
2019-06-27T08:28:01.040Z,65.50
2019-06-27T08:29:01.062Z,67.73
2019-06-27T08:30:01.072Z,67.34
2019-06-27T08:31:01.127Z,65.37
2019-06-27T08:32:01.133Z,63.39
2019-06-27T08:33:01.109Z,63.84
2019-06-27T08:34:01.124Z,62.63
2019-06-27T08:35:01.144Z,61.21
2019-06-27T08:36:01.155Z,61.15
2019-06-27T08:37:01.202Z,62.45
2019-06-27T08:38:01.185Z,62.80
2019-06-27T08:39:01.193Z,61.66
2019-06-27T08:40:01.210Z,61.02
2019-06-27T08:41:01.217Z,62.09
2019-06-27T08:42:01.263Z,61.57
2019-06-27T08:43:01.246Z,61.79
2019-06-27T08:44:01.320Z,60.16
2019-06-27T08:45:01.266Z,60.16
2019-06-27T08:46:01.287Z,58.56
2019-06-27T08:47:01.347Z,57.62
2019-06-27T08:48:01.314Z,57.32
2019-06-27T08:49:01.322Z,58.52
2019-06-27T08:50:01.337Z,56.15
2019-06-27T08:51:01.475Z,58.18
2019-06-27T08:52:01.406Z,61.21
2019-06-27T08:53:01.660Z,61.47
2019-06-27T08:54:01.394Z,62.96
2019-06-27T08:55:01.405Z,64.94
2019-06-27T08:56:02.385Z,65.20
2019-06-27T08:57:01.461Z,65.08
2019-06-27T08:58:01.480Z,61.24
2019-06-27T08:59:01.473Z,60.23
2019-06-27T09:00:01.490Z,59.31
2019-06-27T09:01:01.508Z,57.29
2019-06-27T09:02:08.600Z,57.91
2019-06-27T09:03:01.548Z,56.45
2019-06-27T09:04:01.543Z,57.13
2019-06-27T09:05:01.603Z,56.67
2019-06-27T09:06:01.571Z,55.88
2019-06-27T09:07:01.610Z,56.01
2019-06-27T09:08:01.628Z,55.26
2019-06-27T09:09:01.621Z,54.91
2019-06-27T09:10:01.652Z,54.59
2019-06-27T09:11:01.641Z,55.15
2019-06-27T09:12:01.698Z,55.27
2019-06-27T09:13:01.680Z,55.76
2019-06-27T09:14:01.687Z,55.30
2019-06-27T09:15:01.716Z,53.93
2019-06-27T09:16:01.732Z,53.27
2019-06-27T09:17:01.766Z,54.77
2019-06-27T09:18:01.776Z,53.98
2019-06-27T09:19:01.771Z,52.59
2019-06-27T09:20:01.792Z,52.42
2019-06-27T09:21:01.799Z,51.42
2019-06-27T09:22:01.841Z,50.73
2019-06-27T09:23:01.876Z,51.61
2019-06-27T09:24:02.408Z,50.54
2019-06-27T09:25:02.088Z,52.47
2019-06-27T09:26:01.892Z,50.83
2019-06-27T09:27:01.922Z,50.83
2019-06-27T09:28:01.933Z,50.71
2019-06-27T09:29:01.927Z,51.39
2019-06-27T09:30:01.992Z,51.86
2019-06-27T09:31:01.961Z,51.53
2019-06-27T09:32:02.005Z,51.82
2019-06-27T09:33:02.014Z,52.41
2019-06-27T09:34:02.010Z,53.71
2019-06-27T09:35:02.026Z,54.39
2019-06-27T09:36:02.052Z,54.69
2019-06-27T09:37:02.105Z,54.03
2019-06-27T09:38:02.094Z,54.32
2019-06-27T09:39:02.082Z,55.10
2019-06-27T09:40:02.128Z,53.17
2019-06-27T09:41:02.183Z,52.10
2019-06-27T09:42:02.178Z,52.59
2019-06-27T09:43:02.179Z,51.81
2019-06-27T09:44:02.166Z,51.88
2019-06-27T09:45:02.181Z,51.81
2019-06-27T09:46:02.205Z,52.32
2019-06-27T09:47:02.255Z,53.49
2019-06-27T09:48:02.235Z,51.83
2019-06-27T09:49:02.254Z,50.20
2019-06-27T09:50:02.282Z,50.51
2019-06-27T09:51:02.289Z,48.85
2019-06-27T09:52:02.357Z,49.75
2019-06-27T09:53:02.381Z,47.60
2019-06-27T09:54:02.338Z,47.38
2019-06-27T09:55:02.355Z,46.52
2019-06-27T09:56:02.928Z,47.57
2019-06-27T09:57:02.415Z,48.38
2019-06-27T09:58:02.541Z,49.80
2019-06-27T09:59:02.430Z,50.65
2019-06-27T10:00:02.508Z,49.22
2019-06-27T10:01:05.755Z,49.73
2019-06-27T10:02:02.480Z,47.53
2019-06-27T10:03:02.497Z,49.58
2019-06-27T10:04:02.513Z,49.36
2019-06-27T10:05:02.531Z,47.45
2019-06-27T10:06:02.587Z,47.33
2019-06-27T10:07:02.585Z,47.67
2019-06-27T10:08:02.589Z,46.69
2019-06-27T10:09:02.602Z,46.98
2019-06-27T10:10:02.615Z,46.59
2019-06-27T10:11:02.668Z,46.13
2019-06-27T10:12:03.407Z,46.44
2019-06-27T10:13:02.669Z,46.74
2019-06-27T10:14:02.692Z,46.89
2019-06-27T10:15:02.709Z,48.46
2019-06-27T10:16:02.766Z,47.20
2019-06-27T10:17:02.754Z,48.19
2019-06-27T10:18:02.785Z,47.30
2019-06-27T10:19:03.422Z,46.80
2019-06-27T10:20:02.812Z,47.31
2019-06-27T10:21:02.851Z,47.60
2019-06-27T10:22:02.841Z,47.80
2019-06-27T10:23:02.864Z,49.07
2019-06-27T10:24:03.416Z,51.80
2019-06-27T10:25:02.899Z,49.02
2019-06-27T10:26:02.941Z,50.59
2019-06-27T10:27:02.934Z,49.87
2019-06-27T10:28:02.949Z,49.51
2019-06-27T10:29:02.976Z,48.61
2019-06-27T10:30:03.045Z,50.38
2019-06-27T10:31:03.064Z,52.23
2019-06-27T10:32:03.033Z,53.11
2019-06-27T10:33:03.145Z,52.19
2019-06-27T10:34:03.067Z,51.29
2019-06-27T10:35:03.111Z,51.24
2019-06-27T10:36:03.109Z,50.32
2019-06-27T10:37:03.122Z,50.76
2019-06-27T10:38:03.169Z,50.98
2019-06-27T10:39:03.165Z,48.85
2019-06-27T10:40:03.213Z,48.46
2019-06-27T10:41:03.198Z,48.36
2019-06-27T10:42:03.925Z,49.14
2019-06-27T10:43:03.240Z,49.53
2019-06-27T10:44:03.348Z,49.73
2019-06-27T10:45:03.305Z,51.83
2019-06-27T10:46:03.303Z,50.78
2019-06-27T10:47:03.311Z,49.24
2019-06-27T10:48:03.938Z,47.89
2019-06-27T10:49:03.348Z,50.15
2019-06-27T10:50:03.398Z,50.54
2019-06-27T10:51:03.384Z,49.70
2019-06-27T10:52:03.403Z,48.06
2019-06-27T10:53:03.423Z,46.93
2019-06-27T10:54:04.443Z,45.24
2019-06-27T10:55:03.497Z,46.63
2019-06-27T10:56:03.570Z,46.26
2019-06-27T10:57:03.502Z,45.26
2019-06-27T10:58:03.518Z,45.06
2019-06-27T10:59:03.539Z,45.95
2019-06-27T11:00:03.596Z,45.18
2019-06-27T11:01:03.579Z,45.16
2019-06-27T11:02:03.599Z,43.88
2019-06-27T11:03:14.753Z,45.78
2019-06-27T11:04:03.640Z,45.00
2019-06-27T11:05:03.685Z,43.82
2019-06-27T11:06:03.716Z,46.30
2019-06-27T11:07:03.698Z,46.72
2019-06-27T11:08:03.717Z,45.78
2019-06-27T11:09:03.750Z,44.74
2019-06-27T11:10:03.801Z,42.33
2019-06-27T11:11:03.821Z,42.55
2019-06-27T11:12:03.791Z,42.53
2019-06-27T11:13:04.437Z,43.19
2019-06-27T11:14:03.843Z,43.04
2019-06-27T11:15:03.884Z,42.35
2019-06-27T11:16:03.910Z,42.85
2019-06-27T11:17:03.888Z,41.78
2019-06-27T11:18:04.440Z,42.47
2019-06-27T11:19:03.934Z,41.72
2019-06-27T11:20:03.984Z,42.61
2019-06-27T11:21:04.011Z,43.88
2019-06-27T11:22:04.005Z,42.80
2019-06-27T11:23:04.015Z,42.53
2019-06-27T11:24:04.947Z,42.14
2019-06-27T11:25:04.083Z,41.64
2019-06-27T11:26:04.081Z,39.95
2019-06-27T11:27:04.124Z,40.61
2019-06-27T11:28:04.128Z,39.94
2019-06-27T11:29:04.164Z,40.06
2019-06-27T11:30:04.185Z,40.69
2019-06-27T11:31:04.214Z,39.88
2019-06-27T11:32:04.194Z,38.21
2019-06-27T11:33:04.236Z,37.68
2019-06-27T11:34:04.237Z,39.06
2019-06-27T11:35:04.308Z,38.88
2019-06-27T11:36:04.323Z,38.78
2019-06-27T11:37:04.301Z,38.88
2019-06-27T11:38:04.318Z,39.88
2019-06-27T11:39:04.346Z,38.11
2019-06-27T11:40:04.398Z,39.15
2019-06-27T11:41:04.375Z,39.03
2019-06-27T11:42:04.961Z,38.06
2019-06-27T11:43:04.420Z,37.74
2019-06-27T11:44:04.439Z,36.86
2019-06-27T11:45:04.487Z,36.94
2019-06-27T11:46:04.487Z,38.00
2019-06-27T11:47:04.509Z,36.35
2019-06-27T11:48:04.521Z,35.80
2019-06-27T11:49:04.547Z,38.02
2019-06-27T11:50:04.591Z,37.98
2019-06-27T11:51:04.581Z,38.27
2019-06-27T11:52:04.601Z,37.29
2019-06-27T11:53:04.629Z,37.66
2019-06-27T11:54:05.463Z,37.54
2019-06-27T11:55:04.710Z,36.96
2019-06-27T11:56:04.684Z,35.47
2019-06-27T11:57:04.715Z,38.47
2019-06-27T11:58:04.726Z,38.43
2019-06-27T11:59:04.746Z,39.54
2019-06-27T12:00:04.799Z,39.70
2019-06-27T12:01:04.784Z,38.37
2019-06-27T12:02:04.811Z,38.39
2019-06-27T12:03:04.833Z,37.40
2019-06-27T12:04:04.845Z,38.31
2019-06-27T12:05:04.892Z,37.23
2019-06-27T12:06:04.886Z,37.16
2019-06-27T12:07:04.906Z,36.67
2019-06-27T12:08:04.923Z,36.46
2019-06-27T12:09:05.006Z,35.78
2019-06-27T12:10:05.009Z,35.59
2019-06-27T12:11:05.041Z,36.20
2019-06-27T12:12:05.004Z,37.18
2019-06-27T12:13:05.055Z,36.46
2019-06-27T12:14:05.062Z,36.63
2019-06-27T12:15:05.114Z,36.83
2019-06-27T12:16:05.090Z,37.13
2019-06-27T12:17:05.106Z,39.06
2019-06-27T12:18:05.131Z,38.29
2019-06-27T12:19:05.147Z,40.14
2019-06-27T12:20:05.194Z,38.78
2019-06-27T12:21:06.285Z,39.01
2019-06-27T12:22:05.211Z,37.88
2019-06-27T12:23:05.280Z,36.70
2019-06-27T12:24:05.257Z,36.03
2019-06-27T12:25:05.300Z,36.85
2019-06-27T12:26:05.284Z,37.46
2019-06-27T12:27:05.307Z,36.97
2019-06-27T12:28:05.321Z,34.22
2019-06-27T12:29:05.347Z,34.01
2019-06-27T12:30:05.442Z,32.46
2019-06-27T12:31:19.237Z,34.13
2019-06-27T12:32:05.434Z,34.74
2019-06-27T12:33:05.430Z,33.56
2019-06-27T12:34:07.392Z,33.44
2019-06-27T12:35:05.495Z,34.53
2019-06-27T12:36:05.532Z,32.26
2019-06-27T12:37:05.507Z,32.34
2019-06-27T12:38:05.528Z,33.46
2019-06-27T12:39:05.548Z,34.30
2019-06-27T12:40:05.597Z,36.98
2019-06-27T12:41:05.614Z,37.12
2019-06-27T12:42:05.637Z,37.15
2019-06-27T12:43:05.626Z,36.24
2019-06-27T12:44:05.648Z,35.75
2019-06-27T12:45:05.698Z,36.25
2019-06-27T12:46:05.714Z,36.88
2019-06-27T12:47:05.710Z,36.32
2019-06-27T12:48:07.596Z,35.16
2019-06-27T12:49:05.786Z,34.89
2019-06-27T12:50:05.794Z,34.31
2019-06-27T12:51:05.796Z,33.62
2019-06-27T12:52:05.807Z,34.58
2019-06-27T12:53:05.823Z,35.34